createdAt,value
2018-05-25T00:00:18.106Z,19.95
2018-05-25T00:02:11.200Z,19.98
2018-05-25T00:03:11.203Z,19.99
2018-05-25T00:05:04.381Z,20.01
2018-05-25T00:06:04.422Z,20.06
2018-05-25T00:07:57.274Z,19.98
2018-05-25T00:08:57.296Z,20.01
2018-05-25T00:10:50.229Z,20.03
2018-05-25T00:11:50.235Z,19.98
2018-05-25T00:13:43.214Z,20.06
2018-05-25T00:14:43.169Z,20.02
2018-05-25T00:16:37.100Z,20.01
2018-05-25T00:17:37.108Z,19.92
2018-05-25T00:19:30.050Z,19.92
2018-05-25T00:20:30.050Z,19.87
2018-05-25T00:22:22.986Z,19.88
2018-05-25T00:23:22.985Z,19.81
2018-05-25T00:25:16.071Z,19.99
2018-05-25T00:26:16.079Z,19.88
2018-05-25T00:28:08.993Z,20.03
2018-05-25T00:29:09.018Z,19.96
2018-05-25T00:31:02.176Z,19.99
2018-05-25T00:32:02.180Z,20.02
2018-05-25T00:33:55.131Z,20.05
2018-05-25T00:34:55.123Z,20.10
2018-05-25T00:36:48.319Z,20.11
2018-05-25T00:37:48.338Z,20.10
2018-05-25T00:39:41.486Z,20.02
2018-05-25T00:40:41.491Z,20.02
2018-05-25T00:42:34.955Z,20.01
2018-05-25T00:43:34.909Z,20.08
2018-05-25T00:45:28.062Z,20.08
2018-05-25T00:46:27.973Z,20.03
2018-05-25T00:48:21.101Z,20.01
2018-05-25T00:49:21.129Z,19.98
2018-05-25T00:51:14.059Z,20.01
2018-05-25T00:52:14.061Z,19.96
2018-05-25T00:54:06.979Z,19.96
2018-05-25T00:55:07.002Z,19.88
2018-05-25T00:56:59.938Z,19.86
2018-05-25T00:57:59.938Z,19.87
2018-05-25T00:59:53.343Z,19.78
2018-05-25T01:00:53.375Z,19.73
2018-05-25T01:02:46.373Z,19.76
2018-05-25T01:03:46.372Z,19.74
2018-05-25T01:05:39.252Z,19.73
2018-05-25T01:06:39.309Z,19.73
2018-05-25T01:08:32.228Z,19.68
2018-05-25T01:09:32.203Z,19.59
2018-05-25T01:11:25.129Z,19.73
2018-05-25T01:12:25.140Z,19.68
2018-05-25T01:14:18.094Z,19.66
2018-05-25T01:15:18.080Z,19.65
2018-05-25T01:17:11.019Z,19.68
2018-05-25T01:18:11.016Z,19.61
2018-05-25T01:20:03.933Z,19.66
2018-05-25T01:21:03.959Z,19.69
2018-05-25T01:22:56.890Z,19.71
2018-05-25T01:23:56.893Z,19.68
2018-05-25T01:25:50.042Z,19.69
2018-05-25T01:26:50.042Z,19.69
2018-05-25T01:28:43.285Z,19.68
2018-05-25T01:29:43.234Z,19.58
2018-05-25T01:31:36.467Z,19.65
2018-05-25T01:32:36.375Z,19.51
2018-05-25T01:34:29.822Z,19.61
2018-05-25T01:35:29.845Z,19.54
2018-05-25T01:37:22.981Z,19.73
2018-05-25T01:38:22.984Z,19.62
2018-05-25T01:40:16.135Z,19.71
2018-05-25T01:41:16.144Z,19.71
2018-05-25T01:43:09.312Z,19.71
2018-05-25T01:44:09.317Z,19.68
2018-05-25T01:46:02.270Z,19.76
2018-05-25T01:47:02.257Z,19.65
2018-05-25T01:48:55.172Z,19.73
2018-05-25T01:49:55.200Z,19.66
2018-05-25T01:51:48.281Z,19.71
2018-05-25T01:52:48.285Z,19.71
2018-05-25T01:54:41.703Z,19.69
2018-05-25T01:55:41.727Z,19.68
2018-05-25T01:57:34.668Z,19.68
2018-05-25T01:58:34.661Z,19.77
2018-05-25T02:00:27.579Z,19.73
2018-05-25T02:01:27.607Z,19.71
2018-05-25T02:03:21.028Z,19.66
2018-05-25T02:04:21.036Z,19.74
2018-05-25T02:06:14.171Z,19.71
2018-05-25T02:07:14.182Z,19.65
2018-05-25T02:09:07.303Z,19.66
2018-05-25T02:10:07.328Z,19.51
2018-05-25T02:12:00.269Z,19.56
2018-05-25T02:13:00.273Z,19.51
2018-05-25T02:14:53.194Z,19.51
2018-05-25T02:15:53.213Z,19.51
2018-05-25T02:17:46.147Z,19.44
2018-05-25T02:18:46.150Z,19.41
2018-05-25T02:20:39.064Z,19.44
2018-05-25T02:21:39.084Z,19.31
2018-05-25T02:23:32.020Z,19.29
2018-05-25T02:24:32.029Z,19.31
2018-05-25T02:26:24.956Z,19.22
2018-05-25T02:27:24.959Z,19.19
2018-05-25T02:29:17.876Z,19.21
2018-05-25T02:30:17.965Z,19.10
2018-05-25T02:32:10.854Z,19.21
2018-05-25T02:33:10.860Z,19.21
2018-05-25T02:35:03.921Z,19.23
2018-05-25T02:36:03.945Z,19.21
2018-05-25T02:37:56.894Z,19.21
2018-05-25T02:38:56.890Z,19.21
2018-05-25T02:40:50.317Z,19.18
2018-05-25T02:41:50.331Z,19.21
2018-05-25T02:43:43.289Z,19.19
2018-05-25T02:44:43.283Z,19.13
2018-05-25T02:46:36.413Z,19.18
2018-05-25T02:47:36.370Z,19.16
2018-05-25T02:49:29.491Z,18.99
2018-05-25T02:50:29.515Z,18.98
2018-05-25T02:52:22.458Z,18.99
2018-05-25T02:53:22.450Z,19.02
2018-05-25T02:55:15.608Z,19.02
2018-05-25T02:56:15.626Z,18.98
2018-05-25T02:58:08.771Z,19.00
2018-05-25T02:59:08.773Z,19.06
2018-05-25T03:01:02.012Z,18.95
2018-05-25T03:02:01.941Z,18.98
2018-05-25T03:03:54.874Z,18.99
2018-05-25T03:04:54.876Z,19.00
2018-05-25T03:06:47.897Z,18.91
2018-05-25T03:07:47.844Z,18.99
2018-05-25T03:09:41.901Z,19.06
2018-05-25T03:10:41.924Z,19.10
2018-05-25T03:12:35.102Z,19.21
2018-05-25T03:13:35.083Z,19.25
2018-05-25T03:15:27.995Z,19.25
2018-05-25T03:16:28.017Z,19.25
2018-05-25T03:18:21.187Z,19.32
2018-05-25T03:19:21.153Z,19.32
2018-05-25T03:21:14.091Z,19.43
2018-05-25T03:22:14.048Z,19.48
2018-05-25T03:24:06.980Z,19.56
2018-05-25T03:25:06.984Z,19.55
2018-05-25T03:27:00.917Z,19.54
2018-05-25T03:28:00.915Z,19.71
2018-05-25T03:29:53.829Z,19.56
2018-05-25T03:30:53.851Z,19.61
2018-05-25T03:32:47.390Z,19.66
2018-05-25T03:33:47.359Z,19.69
2018-05-25T03:35:40.838Z,19.54
2018-05-25T03:36:40.841Z,19.66
2018-05-25T03:38:33.734Z,19.61
2018-05-25T03:39:33.734Z,19.68
2018-05-25T03:41:26.849Z,19.71
2018-05-25T03:42:26.874Z,19.76
2018-05-25T03:44:20.302Z,19.66
2018-05-25T03:45:20.308Z,19.74
2018-05-25T03:47:13.236Z,19.73
2018-05-25T03:48:13.240Z,19.84
2018-05-25T03:50:06.426Z,19.74
2018-05-25T03:51:06.350Z,19.76
2018-05-25T03:52:59.285Z,19.81
2018-05-25T03:53:59.284Z,19.83
2018-05-25T03:55:52.198Z,19.87
2018-05-25T03:56:52.224Z,19.91
2018-05-25T03:58:45.323Z,19.76
2018-05-25T03:59:45.326Z,19.81
2018-05-25T04:01:38.455Z,19.92
2018-05-25T04:02:38.474Z,19.95
2018-05-25T04:04:31.629Z,19.96
2018-05-25T04:05:31.631Z,19.94
2018-05-25T04:07:24.565Z,19.98
2018-05-25T04:08:24.567Z,20.03
2018-05-25T04:10:17.480Z,20.01
2018-05-25T04:11:17.509Z,19.98
2018-05-25T04:13:10.446Z,19.94
2018-05-25T04:14:10.443Z,19.91
2018-05-25T04:16:03.361Z,19.91
2018-05-25T04:17:03.399Z,19.95
2018-05-25T04:18:56.817Z,19.83
2018-05-25T04:19:56.824Z,19.86
2018-05-25T04:21:49.762Z,19.83
2018-05-25T04:22:49.786Z,19.76
2018-05-25T04:24:43.219Z,19.71
2018-05-25T04:25:43.218Z,19.80
2018-05-25T04:27:36.155Z,19.77
2018-05-25T04:28:36.159Z,19.86
2018-05-25T04:30:29.077Z,19.95
2018-05-25T04:31:29.103Z,19.95
2018-05-25T04:33:22.035Z,20.02
2018-05-25T04:34:22.038Z,20.06
2018-05-25T04:36:15.129Z,20.11
2018-05-25T04:37:15.156Z,20.11
2018-05-25T04:39:08.322Z,20.16
2018-05-25T04:40:08.318Z,20.13
2018-05-25T04:42:01.241Z,20.29
2018-05-25T04:43:01.263Z,20.39
2018-05-25T04:44:54.198Z,20.55
2018-05-25T04:45:54.204Z,20.73
2018-05-25T04:47:47.671Z,20.88
2018-05-25T04:48:47.662Z,20.99
2018-05-25T04:50:40.726Z,21.37
2018-05-25T04:51:40.779Z,21.50
2018-05-25T04:53:33.687Z,21.62
2018-05-25T04:54:33.688Z,21.64
2018-05-25T04:56:26.920Z,21.94
2018-05-25T04:57:26.902Z,21.90
2018-05-25T04:59:20.331Z,21.98
2018-05-25T05:00:20.337Z,21.99
2018-05-25T05:02:13.459Z,22.07
2018-05-25T05:03:13.484Z,22.31
2018-05-25T05:05:06.452Z,22.68
2018-05-25T05:06:06.442Z,22.80
2018-05-25T05:07:59.607Z,23.09
2018-05-25T05:08:59.609Z,23.19
2018-05-25T05:10:52.542Z,23.07
2018-05-25T05:11:52.563Z,23.09
2018-05-25T05:13:45.751Z,23.15
2018-05-25T05:14:45.788Z,23.27
2018-05-25T05:16:38.727Z,23.47
2018-05-25T05:17:38.705Z,23.54
2018-05-25T05:19:31.881Z,23.48
2018-05-25T05:20:31.862Z,23.38
2018-05-25T05:22:24.827Z,23.36
2018-05-25T05:23:24.800Z,23.25
2018-05-25T05:25:17.751Z,23.31
2018-05-25T05:26:17.750Z,23.40
2018-05-25T05:28:10.708Z,23.15
2018-05-25T05:29:10.713Z,23.07
2018-05-25T05:31:03.650Z,23.02
2018-05-25T05:32:03.662Z,23.09
2018-05-25T05:33:56.666Z,23.13
2018-05-25T05:34:56.612Z,23.16
2018-05-25T05:36:49.549Z,23.23
2018-05-25T05:37:49.581Z,23.13
2018-05-25T05:39:42.551Z,23.40
2018-05-25T05:40:42.527Z,23.58
2018-05-25T05:42:35.446Z,23.83
2018-05-25T05:43:35.472Z,24.06
2018-05-25T05:45:28.421Z,24.18
2018-05-25T05:46:28.428Z,24.28
2018-05-25T05:48:21.369Z,24.46
2018-05-25T05:49:21.377Z,24.57
2018-05-25T05:51:15.518Z,24.95
2018-05-25T05:52:15.546Z,25.08
2018-05-25T05:54:08.989Z,25.03
2018-05-25T05:55:09.000Z,25.20
2018-05-25T05:57:01.930Z,25.03
2018-05-25T05:58:01.980Z,24.81
2018-05-25T05:59:54.897Z,24.65
2018-05-25T06:00:54.908Z,24.52
2018-05-25T06:02:47.829Z,24.39
2018-05-25T06:03:47.859Z,24.28
2018-05-25T06:05:40.833Z,24.15
2018-05-25T06:06:40.816Z,24.08
2018-05-25T06:08:33.846Z,23.70
2018-05-25T06:09:33.766Z,23.70
2018-05-25T06:11:26.690Z,23.58
2018-05-25T06:12:26.734Z,23.36
2018-05-25T06:14:26.802Z,23.15
2018-05-25T06:15:26.960Z,23.19
2018-05-25T06:17:19.941Z,23.19
2018-05-25T06:18:12.628Z,23.15
2018-05-25T06:20:05.639Z,23.05
2018-05-25T06:21:13.236Z,23.10
2018-05-25T06:22:58.594Z,22.80
2018-05-25T06:23:58.562Z,22.64
2018-05-25T06:25:51.999Z,22.54
2018-05-25T06:26:52.008Z,22.61
2018-05-25T06:28:45.447Z,22.62
2018-05-25T06:29:45.453Z,22.60
2018-05-25T06:31:39.369Z,22.64
2018-05-25T06:32:39.395Z,22.65
2018-05-25T06:34:32.830Z,22.88
2018-05-25T06:35:32.840Z,22.86
2018-05-25T06:37:26.258Z,22.92
2018-05-25T06:38:26.290Z,22.92
2018-05-25T06:40:19.723Z,23.05
2018-05-25T06:41:19.731Z,23.16
2018-05-25T06:43:12.656Z,23.22
2018-05-25T06:44:12.681Z,23.19
2018-05-25T06:46:06.118Z,23.28
2018-05-25T06:47:06.127Z,23.20
2018-05-25T06:48:59.563Z,23.38
2018-05-25T06:49:59.575Z,23.38
2018-05-25T06:51:52.997Z,23.61
2018-05-25T06:52:53.023Z,23.57
2018-05-25T06:54:45.967Z,23.33
2018-05-25T06:55:45.973Z,23.19
2018-05-25T06:57:39.461Z,23.38
2018-05-25T06:58:39.422Z,23.28
2018-05-25T07:00:32.858Z,23.23
2018-05-25T07:01:32.868Z,23.13
2018-05-25T07:03:25.793Z,23.46
2018-05-25T07:04:25.822Z,23.39
2018-05-25T07:06:18.770Z,23.05
2018-05-25T07:07:18.775Z,22.94
2018-05-25T07:09:12.210Z,22.72
2018-05-25T07:10:12.220Z,22.75
2018-05-25T07:12:05.640Z,22.86
2018-05-25T07:13:05.665Z,22.90
2018-05-25T07:15:00.103Z,22.88
2018-05-25T07:16:00.113Z,22.68
2018-05-25T07:17:53.033Z,22.90
2018-05-25T07:18:53.061Z,22.83
2018-05-25T07:20:48.995Z,22.86
2018-05-25T07:21:49.008Z,22.91
2018-05-25T07:23:41.925Z,22.79
2018-05-25T07:24:41.958Z,22.83
2018-05-25T07:26:35.392Z,22.91
2018-05-25T07:27:35.400Z,23.09
2018-05-25T07:29:28.835Z,23.23
2018-05-25T07:30:28.844Z,23.25
2018-05-25T07:32:22.267Z,23.05
2018-05-25T07:33:22.352Z,23.05
2018-05-25T07:35:15.238Z,23.25
2018-05-25T07:36:15.247Z,23.13
2018-05-25T07:38:08.709Z,23.25
2018-05-25T07:39:08.697Z,23.15
2018-05-25T07:41:01.636Z,23.12
2018-05-25T07:42:01.649Z,23.23
2018-05-25T07:43:54.574Z,23.51
2018-05-25T07:44:54.604Z,23.50
2018-05-25T07:46:47.546Z,23.65
2018-05-25T07:47:47.557Z,23.73
2018-05-25T07:49:40.501Z,23.90
2018-05-25T07:50:40.511Z,23.98
2018-05-25T07:52:33.931Z,24.27
2018-05-25T07:53:33.961Z,24.34
2018-05-25T07:55:26.905Z,24.55
2018-05-25T07:56:26.916Z,24.68
2018-05-25T07:58:19.875Z,25.06
2018-05-25T07:59:19.872Z,25.15
2018-05-25T08:01:13.312Z,25.08
2018-05-25T08:02:13.325Z,25.06
2018-05-25T08:04:06.249Z,24.77
2018-05-25T08:05:06.280Z,24.88
2018-05-25T08:06:59.720Z,24.95
2018-05-25T08:07:59.733Z,25.06
2018-05-25T08:09:52.681Z,25.15
2018-05-25T08:10:52.692Z,25.15
2018-05-25T08:12:45.618Z,25.03
2018-05-25T08:13:45.650Z,24.90
2018-05-25T08:15:38.600Z,24.96
2018-05-25T08:16:38.612Z,24.91
2018-05-25T08:18:31.541Z,24.77
2018-05-25T08:19:31.575Z,24.85
2018-05-25T08:21:25.015Z,24.99
2018-05-25T08:22:25.027Z,25.09
2018-05-25T08:24:18.446Z,25.18
2018-05-25T08:25:18.476Z,25.14
2018-05-25T08:27:11.426Z,25.28
2018-05-25T08:28:11.435Z,25.32
2018-05-25T08:30:04.873Z,25.08
2018-05-25T08:31:04.896Z,25.35
2018-05-25T08:33:00.362Z,25.52
2018-05-25T08:34:00.336Z,25.72
2018-05-25T08:35:53.779Z,25.94
2018-05-25T08:36:53.793Z,26.06
2018-05-25T08:38:47.710Z,25.92
2018-05-25T08:39:47.746Z,25.95
2018-05-25T08:41:40.690Z,25.98
2018-05-25T08:42:40.702Z,26.01
2018-05-25T08:44:33.633Z,25.90
2018-05-25T08:45:33.660Z,26.12
2018-05-25T08:47:27.096Z,25.98
2018-05-25T08:48:27.108Z,26.09
2018-05-25T08:50:20.559Z,26.35
2018-05-25T08:51:20.569Z,26.25
2018-05-25T08:53:13.990Z,26.10
2018-05-25T08:54:14.022Z,26.10
2018-05-25T08:56:07.473Z,26.10
2018-05-25T08:57:07.486Z,25.94
2018-05-25T08:59:01.973Z,26.07
2018-05-25T09:00:01.939Z,26.09
2018-05-25T09:01:54.884Z,25.98
2018-05-25T09:02:54.894Z,25.95
2018-05-25T09:04:49.318Z,26.07
2018-05-25T09:05:49.346Z,26.23
2018-05-25T09:07:42.833Z,26.36
2018-05-25T09:08:42.804Z,26.44
2018-05-25T09:10:35.757Z,26.47
2018-05-25T09:11:35.777Z,26.40
2018-05-25T09:13:30.235Z,26.60
2018-05-25T09:14:30.265Z,26.73
2018-05-25T09:16:24.709Z,26.80
2018-05-25T09:17:24.798Z,26.84
2018-05-25T09:19:18.148Z,26.80
2018-05-25T09:20:18.180Z,26.80
2018-05-25T09:22:11.129Z,26.72
2018-05-25T09:23:11.184Z,26.70
2018-05-25T09:25:05.570Z,26.72
2018-05-25T09:26:05.593Z,26.65
2018-05-25T09:28:00.033Z,26.51
2018-05-25T09:29:00.045Z,26.63
2018-05-25T09:30:53.010Z,26.60
2018-05-25T09:31:53.006Z,26.54
2018-05-25T09:33:46.609Z,26.60
2018-05-25T09:34:46.575Z,26.82
2018-05-25T09:36:40.028Z,26.94
2018-05-25T09:37:40.026Z,26.87
2018-05-25T09:39:33.000Z,26.67
2018-05-25T09:40:33.044Z,26.54
2018-05-25T09:42:26.468Z,26.70
2018-05-25T09:43:26.537Z,26.84
2018-05-25T09:45:19.457Z,26.94
2018-05-25T09:46:19.444Z,27.03
2018-05-25T09:48:12.391Z,27.04
2018-05-25T09:49:12.406Z,27.09
2018-05-25T09:51:06.844Z,26.91
2018-05-25T09:52:06.859Z,26.85
2018-05-25T09:53:59.830Z,26.89
2018-05-25T09:54:59.822Z,26.89
2018-05-25T09:56:52.772Z,26.91
2018-05-25T09:57:52.784Z,26.94
2018-05-25T09:59:45.710Z,27.17
2018-05-25T10:00:45.742Z,27.28
2018-05-25T10:02:40.184Z,27.24
2018-05-25T10:03:40.193Z,27.24
2018-05-25T10:05:33.621Z,27.19
2018-05-25T10:06:33.651Z,27.10
2018-05-25T10:08:27.145Z,26.89
2018-05-25T10:09:27.157Z,26.75
2018-05-25T10:11:20.598Z,26.58
2018-05-25T10:12:20.610Z,26.28
2018-05-25T10:14:16.036Z,26.21
2018-05-25T10:15:16.065Z,26.32
2018-05-25T10:17:09.034Z,26.50
2018-05-25T10:18:09.026Z,26.44
2018-05-25T10:20:02.992Z,26.63
2018-05-25T10:21:03.019Z,26.63
2018-05-25T10:22:56.460Z,26.58
2018-05-25T10:23:56.476Z,26.62
2018-05-25T10:25:49.403Z,26.88
2018-05-25T10:26:49.646Z,26.95
2018-05-25T10:28:42.402Z,27.02
2018-05-25T10:29:42.395Z,27.04
2018-05-25T10:31:35.491Z,26.72
2018-05-25T10:32:35.446Z,26.85
2018-05-25T10:34:28.381Z,26.75
2018-05-25T10:35:28.415Z,26.70
2018-05-25T10:37:22.011Z,26.75
2018-05-25T10:38:22.041Z,26.84
2018-05-25T10:40:24.980Z,27.03
2018-05-25T10:41:24.985Z,27.09
2018-05-25T10:43:17.936Z,27.24
2018-05-25T10:44:17.943Z,27.36
2018-05-25T10:46:11.910Z,27.44
2018-05-25T10:47:11.926Z,27.40
2018-05-25T10:49:04.855Z,27.50
2018-05-25T10:50:04.883Z,27.40
2018-05-25T10:51:58.828Z,27.62
2018-05-25T10:52:58.837Z,27.60
2018-05-25T10:54:51.762Z,27.50
2018-05-25T10:55:51.831Z,27.54
2018-05-25T10:57:44.851Z,27.66
2018-05-25T10:58:44.785Z,27.49
2018-05-25T11:00:37.813Z,27.39
2018-05-25T11:01:37.787Z,27.41
2018-05-25T11:03:30.741Z,27.40
2018-05-25T11:04:30.753Z,27.39
2018-05-25T11:06:23.700Z,27.41
2018-05-25T11:07:23.712Z,27.27
2018-05-25T11:09:17.136Z,27.31
2018-05-25T11:10:17.168Z,27.21
2018-05-25T11:12:10.609Z,27.39
2018-05-25T11:13:10.623Z,27.32
2018-05-25T11:15:03.553Z,27.51
2018-05-25T11:16:03.586Z,27.44
2018-05-25T11:17:56.537Z,27.41
2018-05-25T11:18:56.544Z,27.49
2018-05-25T11:20:49.968Z,27.32
2018-05-25T11:21:49.999Z,27.29
2018-05-25T11:23:43.448Z,27.25
2018-05-25T11:24:43.455Z,27.37
2018-05-25T11:26:36.407Z,27.65
2018-05-25T11:27:36.420Z,27.77
2018-05-25T11:29:29.845Z,27.84
2018-05-25T11:30:29.877Z,27.96
2018-05-25T11:32:23.329Z,28.00
2018-05-25T11:33:23.346Z,27.97
2018-05-25T11:35:16.783Z,27.92
2018-05-25T11:36:16.806Z,27.85
2018-05-25T11:38:10.743Z,27.81
2018-05-25T11:39:10.757Z,27.84
2018-05-25T11:41:04.204Z,28.06
2018-05-25T11:42:04.243Z,28.24
2018-05-25T11:43:57.223Z,28.27
2018-05-25T11:44:57.222Z,28.34
2018-05-25T11:46:50.138Z,28.22
2018-05-25T11:47:57.766Z,28.21
2018-05-25T11:49:44.568Z,28.49
2018-05-25T11:50:44.603Z,28.67
2018-05-25T11:52:38.046Z,28.59
2018-05-25T11:53:38.059Z,28.58
2018-05-25T11:55:31.487Z,28.55
2018-05-25T11:56:31.521Z,28.22
2018-05-25T11:58:24.473Z,28.34
2018-05-25T11:59:24.480Z,28.36
2018-05-25T12:01:17.414Z,28.62
2018-05-25T12:02:17.446Z,28.59
2018-05-25T12:04:10.395Z,28.33
2018-05-25T12:05:10.410Z,28.17
2018-05-25T12:07:03.865Z,28.21
2018-05-25T12:08:03.868Z,28.24
2018-05-25T12:09:56.833Z,28.15
2018-05-25T12:10:56.840Z,28.03
2018-05-25T12:12:51.292Z,27.92
2018-05-25T12:13:51.307Z,27.81
2018-05-25T12:15:44.271Z,27.78
2018-05-25T12:16:44.302Z,27.97
2018-05-25T12:18:37.761Z,28.14
2018-05-25T12:19:37.770Z,28.17
2018-05-25T12:21:30.702Z,27.93
2018-05-25T12:22:30.737Z,27.93
2018-05-25T12:24:23.690Z,27.82
2018-05-25T12:25:23.699Z,27.88
2018-05-25T12:27:18.142Z,27.69
2018-05-25T12:28:18.156Z,27.82
2018-05-25T12:30:11.584Z,27.99
2018-05-25T12:31:11.617Z,28.12
2018-05-25T12:33:04.570Z,28.22
2018-05-25T12:34:04.612Z,28.37
2018-05-25T12:35:57.518Z,28.44
2018-05-25T12:36:57.547Z,28.40
2018-05-25T12:38:50.499Z,28.14
2018-05-25T12:39:50.511Z,28.09
2018-05-25T12:41:43.937Z,28.15
2018-05-25T12:42:43.971Z,28.25
2018-05-25T12:44:36.922Z,28.21
2018-05-25T12:45:36.935Z,28.09
2018-05-25T12:47:30.379Z,28.15
2018-05-25T12:48:30.393Z,28.00
2018-05-25T12:50:23.339Z,28.07
2018-05-25T12:51:23.369Z,28.12
2018-05-25T12:53:16.322Z,28.31
2018-05-25T12:54:16.337Z,28.39
2018-05-25T12:56:09.265Z,28.54
2018-05-25T12:57:09.298Z,28.37
2018-05-25T12:59:02.741Z,28.41
2018-05-25T13:00:02.757Z,28.37
2018-05-25T13:01:56.180Z,28.14
2018-05-25T13:02:56.212Z,28.02
2018-05-25T13:04:49.166Z,28.00
2018-05-25T13:05:49.174Z,27.81
2018-05-25T13:07:42.122Z,27.90
2018-05-25T13:08:42.134Z,27.77
2018-05-25T13:10:35.062Z,27.67
2018-05-25T13:11:35.093Z,27.67
2018-05-25T13:13:28.045Z,27.62
2018-05-25T13:14:28.056Z,27.31
2018-05-25T13:16:20.984Z,26.89
2018-05-25T13:17:21.017Z,26.72
2018-05-25T13:19:13.970Z,26.57
2018-05-25T13:20:13.980Z,26.54
2018-05-25T13:22:06.912Z,26.40
2018-05-25T13:23:06.944Z,26.48
2018-05-25T13:24:59.898Z,26.36
2018-05-25T13:25:59.903Z,26.28
2018-05-25T13:27:52.853Z,26.10
2018-05-25T13:28:52.862Z,25.92
2018-05-25T13:30:46.286Z,25.83
2018-05-25T13:31:46.317Z,25.70
2018-05-25T13:33:39.761Z,25.61
2018-05-25T13:34:39.772Z,25.57
2018-05-25T13:36:34.190Z,25.55
2018-05-25T13:37:34.226Z,25.61
2018-05-25T13:39:32.162Z,25.64
2018-05-25T13:40:32.170Z,25.72
2018-05-25T13:42:25.097Z,25.73
2018-05-25T13:43:25.124Z,25.77
2018-05-25T13:45:19.758Z,25.85
2018-05-25T13:46:19.691Z,25.92
2018-05-25T13:48:12.667Z,25.80
2018-05-25T13:49:12.750Z,25.83
2018-05-25T13:51:05.913Z,25.92
2018-05-25T13:52:05.742Z,26.10
2018-05-25T13:53:58.747Z,26.09
2018-05-25T13:54:58.737Z,26.09
2018-05-25T13:56:51.814Z,26.29
2018-05-25T13:57:51.712Z,26.37
2018-05-25T13:59:44.657Z,26.28
2018-05-25T14:00:44.665Z,26.30
2018-05-25T14:02:38.093Z,26.32
2018-05-25T14:03:38.126Z,26.09
2018-05-25T14:05:31.068Z,26.26
2018-05-25T14:06:31.235Z,26.29
2018-05-25T14:08:24.381Z,26.25
2018-05-25T14:09:24.271Z,26.32
2018-05-25T14:11:18.648Z,26.63
2018-05-25T14:12:18.612Z,26.84
2018-05-25T14:14:11.680Z,26.84
2018-05-25T14:15:11.569Z,26.77
2018-05-25T14:17:04.541Z,26.85
2018-05-25T14:18:04.555Z,27.07
2018-05-25T14:19:57.556Z,27.07
2018-05-25T14:20:57.510Z,27.07
2018-05-25T14:22:50.464Z,27.09
2018-05-25T14:23:50.469Z,27.14
2018-05-25T14:25:43.915Z,27.34
2018-05-25T14:26:43.971Z,27.40
2018-05-25T14:28:37.382Z,27.65
2018-05-25T14:29:37.395Z,27.67
2018-05-25T14:31:30.851Z,27.85
2018-05-25T14:32:30.833Z,27.87
2018-05-25T14:34:24.278Z,27.92
2018-05-25T14:35:24.289Z,27.99
2018-05-25T14:37:17.747Z,28.22
2018-05-25T14:38:17.746Z,28.34
2018-05-25T14:40:12.193Z,28.68
2018-05-25T14:41:12.208Z,28.67
2018-05-25T14:43:05.135Z,28.41
2018-05-25T14:44:05.163Z,28.33
2018-05-25T14:45:58.118Z,28.34
2018-05-25T14:46:58.125Z,28.34
2018-05-25T14:48:51.077Z,28.29
2018-05-25T14:49:51.088Z,28.25
2018-05-25T14:51:44.038Z,28.39
2018-05-25T14:52:44.049Z,28.52
2018-05-25T14:54:37.003Z,28.76
2018-05-25T14:55:37.015Z,28.74
2018-05-25T14:57:29.958Z,28.76
2018-05-25T14:58:29.981Z,28.74
2018-05-25T15:00:22.934Z,28.83
2018-05-25T15:01:22.942Z,28.77
2018-05-25T15:03:16.369Z,28.96
2018-05-25T15:04:16.405Z,28.92
2018-05-25T15:06:09.349Z,28.98
2018-05-25T15:07:09.368Z,28.92
2018-05-25T15:09:02.808Z,28.74
2018-05-25T15:10:02.826Z,28.74
2018-05-25T15:11:55.750Z,28.88
2018-05-25T15:12:55.781Z,28.95
2018-05-25T15:14:48.788Z,28.76
2018-05-25T15:15:48.775Z,28.66
2018-05-25T15:17:42.186Z,28.49
2018-05-25T15:18:42.216Z,28.49
2018-05-25T15:20:36.678Z,28.17
2018-05-25T15:21:36.669Z,28.15
2018-05-25T15:23:30.100Z,28.06
2018-05-25T15:24:30.153Z,28.00
2018-05-25T15:26:23.609Z,28.00
2018-05-25T15:27:23.586Z,27.81
2018-05-25T15:29:17.029Z,27.66
2018-05-25T15:30:17.070Z,27.74
2018-05-25T15:32:10.009Z,27.79
2018-05-25T15:33:10.001Z,27.78
2018-05-25T15:35:03.502Z,27.66
2018-05-25T15:36:03.462Z,27.63
2018-05-25T15:37:56.883Z,27.60
2018-05-25T15:38:56.916Z,27.67
2018-05-25T15:40:49.883Z,27.81
2018-05-25T15:41:49.880Z,27.82
2018-05-25T15:43:43.306Z,27.63
2018-05-25T15:44:43.333Z,27.67
2018-05-25T15:46:37.775Z,27.74
2018-05-25T15:47:37.786Z,27.77
2018-05-25T15:49:30.737Z,27.79
2018-05-25T15:50:30.752Z,27.82
2018-05-25T15:52:23.669Z,27.82
2018-05-25T15:53:23.701Z,27.85
2018-05-25T15:55:16.646Z,27.97
2018-05-25T15:56:16.663Z,27.97
2018-05-25T15:58:10.080Z,28.18
2018-05-25T15:59:10.113Z,28.09
2018-05-25T16:01:04.551Z,27.96
2018-05-25T16:02:04.567Z,28.00
2018-05-25T16:03:57.495Z,28.18
2018-05-25T16:04:57.536Z,28.11
2018-05-25T16:06:51.002Z,28.03
2018-05-25T16:07:50.993Z,27.94
2018-05-25T16:09:43.954Z,27.87
2018-05-25T16:10:43.962Z,27.90
2018-05-25T16:12:36.902Z,27.99
2018-05-25T16:13:36.924Z,28.00
2018-05-25T16:15:29.876Z,28.14
2018-05-25T16:16:29.890Z,28.18
2018-05-25T16:18:23.317Z,28.30
2018-05-25T16:19:23.350Z,28.34
2018-05-25T16:21:17.800Z,28.34
2018-05-25T16:22:17.809Z,28.49
2018-05-25T16:24:10.749Z,28.54
2018-05-25T16:25:10.776Z,28.48
2018-05-25T16:27:03.731Z,28.67
2018-05-25T16:28:03.741Z,28.66
2018-05-25T16:29:57.222Z,28.66
2018-05-25T16:30:57.244Z,28.67
2018-05-25T16:32:50.128Z,28.77
2018-05-25T16:33:50.190Z,28.70
2018-05-25T16:35:43.166Z,28.55
2018-05-25T16:36:43.164Z,28.46
2018-05-25T16:38:36.082Z,28.30
2018-05-25T16:39:36.092Z,28.09
2018-05-25T16:41:29.551Z,28.09
2018-05-25T16:42:29.556Z,28.03
2018-05-25T16:44:24.887Z,27.97
2018-05-25T16:45:22.518Z,28.03
2018-05-25T16:47:16.246Z,28.03
2018-05-25T16:48:16.354Z,28.03
2018-05-25T16:50:19.566Z,28.11
2018-05-25T16:51:19.983Z,28.21
2018-05-25T16:53:12.451Z,28.30
2018-05-25T16:54:12.475Z,28.37
2018-05-25T16:56:05.609Z,28.27
2018-05-25T16:57:05.595Z,28.30
2018-05-25T16:58:58.580Z,28.30
2018-05-25T16:59:58.552Z,28.39
2018-05-25T17:01:51.538Z,28.44
2018-05-25T17:02:51.548Z,28.54
2018-05-25T17:04:45.022Z,28.52
2018-05-25T17:05:45.017Z,28.55
2018-05-25T17:07:37.953Z,28.58
2018-05-25T17:08:38.035Z,28.70
2018-05-25T17:10:31.430Z,28.62
2018-05-25T17:11:31.440Z,28.67
2018-05-25T17:13:25.266Z,28.67
2018-05-25T17:14:25.291Z,28.68
2018-05-25T17:16:18.202Z,28.66
2018-05-25T17:17:18.215Z,28.54
2018-05-25T17:19:11.238Z,28.59
2018-05-25T17:20:11.193Z,28.52
2018-05-25T17:22:04.634Z,28.40
2018-05-25T17:23:04.671Z,28.40
2018-05-25T17:24:57.648Z,27.96
2018-05-25T17:25:57.645Z,27.87
2018-05-25T17:27:50.615Z,27.57
2018-05-25T17:28:50.604Z,27.54
2018-05-25T17:30:46.597Z,27.47
2018-05-25T17:31:46.571Z,27.29
2018-05-25T17:33:39.521Z,27.28
2018-05-25T17:34:39.536Z,27.29
2018-05-25T17:36:32.531Z,27.34
2018-05-25T17:37:32.540Z,27.19
2018-05-25T17:39:25.501Z,27.06
2018-05-25T17:40:25.501Z,27.04
2018-05-25T17:42:18.451Z,26.95
2018-05-25T17:43:18.459Z,26.89
2018-05-25T17:45:11.950Z,26.89
2018-05-25T17:46:11.926Z,26.92
2018-05-25T17:48:04.908Z,26.84
2018-05-25T17:49:04.927Z,26.77
2018-05-25T17:50:58.416Z,26.87
2018-05-25T17:51:58.419Z,26.97
2018-05-25T17:53:51.365Z,26.99
2018-05-25T17:54:51.349Z,26.95
2018-05-25T17:56:45.788Z,26.89
2018-05-25T17:57:45.865Z,26.89
2018-05-25T17:59:38.727Z,26.88
2018-05-25T18:00:38.781Z,26.97
2018-05-25T18:02:31.762Z,27.07
2018-05-25T18:03:31.754Z,27.07
2018-05-25T18:05:24.653Z,27.19
2018-05-25T18:06:24.666Z,27.21
2018-05-25T18:08:19.090Z,27.09
2018-05-25T18:09:19.146Z,27.02
2018-05-25T18:11:12.078Z,27.03
2018-05-25T18:12:12.079Z,27.04
2018-05-25T18:14:05.006Z,27.07
2018-05-25T18:15:05.036Z,27.09
2018-05-25T18:16:57.981Z,27.04
2018-05-25T18:17:57.990Z,26.99
2018-05-25T18:19:51.455Z,27.13
2018-05-25T18:20:51.442Z,27.24
2018-05-25T18:22:45.880Z,27.32
2018-05-25T18:23:45.893Z,27.37
2018-05-25T18:25:38.875Z,27.39
2018-05-25T18:26:38.918Z,27.41
2018-05-25T18:28:31.812Z,27.39
2018-05-25T18:29:31.850Z,27.40
2018-05-25T18:31:24.788Z,27.40
2018-05-25T18:32:24.799Z,27.24
2018-05-25T18:34:18.265Z,27.25
2018-05-25T18:35:18.274Z,27.18